createdAt,value
2018-01-26T00:00:14.390Z,87.67
2018-01-26T00:02:44.486Z,87.52
2018-01-26T00:05:14.135Z,87.88
2018-01-26T00:07:42.496Z,87.85
2018-01-26T00:10:12.441Z,88.14
2018-01-26T00:12:41.582Z,88.48
2018-01-26T00:15:11.484Z,89.04
2018-01-26T00:17:40.046Z,88.81
2018-01-26T00:20:11.596Z,88.67
2018-01-26T00:22:40.102Z,88.44
2018-01-26T00:25:14.386Z,88.66
2018-01-26T00:27:42.666Z,88.68
2018-01-26T00:30:12.262Z,88.61
2018-01-26T00:32:40.824Z,88.51
2018-01-26T00:35:12.844Z,88.38
2018-01-26T00:37:41.124Z,87.71
2018-01-26T00:40:12.340Z,88.13
2018-01-26T00:42:40.611Z,88.12
2018-01-26T00:45:11.721Z,88.12
2018-01-26T00:47:40.215Z,87.98
2018-01-26T00:50:11.524Z,88.08
2018-01-26T00:52:40.016Z,88.47
2018-01-26T00:55:11.957Z,88.54
2018-01-26T00:57:40.218Z,88.59
2018-01-26T01:00:11.723Z,88.60
2018-01-26T01:02:40.376Z,88.98
2018-01-26T01:05:12.304Z,89.34
2018-01-26T01:07:40.582Z,89.39
2018-01-26T01:10:10.517Z,89.37
2018-01-26T01:12:38.778Z,88.83
2018-01-26T01:15:10.979Z,88.76
2018-01-26T01:17:39.223Z,88.44
2018-01-26T01:20:10.552Z,88.57
2018-01-26T01:22:38.851Z,88.52
2018-01-26T01:25:10.352Z,88.28
2018-01-26T01:27:38.672Z,88.58
2018-01-26T01:30:10.284Z,89.08
2018-01-26T01:32:38.572Z,89.27
2018-01-26T01:35:09.913Z,89.08
2018-01-26T01:37:38.196Z,89.03
2018-01-26T01:40:12.849Z,88.79
2018-01-26T01:42:41.144Z,88.98
2018-01-26T01:45:11.120Z,89.12
2018-01-26T01:47:39.388Z,89.47
2018-01-26T01:50:10.673Z,89.83
2018-01-26T01:52:38.956Z,89.71
2018-01-26T01:55:13.992Z,89.10
2018-01-26T01:57:42.268Z,89.08
2018-01-26T02:00:10.557Z,89.10
2018-01-26T02:02:38.824Z,88.72
2018-01-26T02:05:10.433Z,88.90
2018-01-26T02:07:38.653Z,88.83
2018-01-26T02:10:09.951Z,89.04
2018-01-26T02:12:38.561Z,89.44
2018-01-26T02:15:13.568Z,88.92
2018-01-26T02:17:41.854Z,89.04
2018-01-26T02:20:11.390Z,89.13
2018-01-26T02:22:39.668Z,89.04
2018-01-26T02:25:11.685Z,89.23
2018-01-26T02:27:39.952Z,89.28
2018-01-26T02:30:12.058Z,88.98
2018-01-26T02:32:40.508Z,88.96
2018-01-26T02:35:12.387Z,89.00
2018-01-26T02:37:40.654Z,88.78
2018-01-26T02:40:12.089Z,88.70
2018-01-26T02:42:40.378Z,89.07
2018-01-26T02:45:12.294Z,88.88
2018-01-26T02:47:41.034Z,88.86
2018-01-26T02:50:11.147Z,88.96
2018-01-26T02:52:39.455Z,88.84
2018-01-26T02:55:11.669Z,88.69
2018-01-26T02:57:40.404Z,88.84
2018-01-26T03:00:12.004Z,89.44
2018-01-26T03:02:40.314Z,89.14
2018-01-26T03:05:11.530Z,89.17
2018-01-26T03:07:40.029Z,88.82
2018-01-26T03:10:11.968Z,88.72
2018-01-26T03:12:40.258Z,88.69
2018-01-26T03:15:11.506Z,88.72
2018-01-26T03:17:39.835Z,88.76
2018-01-26T03:20:10.514Z,88.86
2018-01-26T03:22:38.791Z,88.78
2018-01-26T03:25:12.826Z,89.18
2018-01-26T03:27:41.120Z,88.83
2018-01-26T03:30:10.858Z,88.50
2018-01-26T03:32:39.117Z,88.63
2018-01-26T03:35:13.244Z,88.66
2018-01-26T03:37:41.504Z,88.37
2018-01-26T03:40:11.220Z,88.54
2018-01-26T03:42:39.495Z,88.60
2018-01-26T03:45:10.680Z,88.91
2018-01-26T03:47:39.053Z,88.96
2018-01-26T03:50:14.253Z,89.05
2018-01-26T03:52:42.542Z,89.06
2018-01-26T03:55:10.808Z,89.17
2018-01-26T03:57:39.089Z,89.04
2018-01-26T04:00:10.419Z,88.99
2018-01-26T04:02:38.708Z,89.05
2018-01-26T04:05:10.207Z,89.04
2018-01-26T04:07:38.484Z,88.87
2018-01-26T04:10:13.675Z,88.77
2018-01-26T04:12:42.014Z,88.74
2018-01-26T04:15:10.806Z,88.80
2018-01-26T04:17:39.257Z,89.08
2018-01-26T04:20:10.780Z,89.05
2018-01-26T04:22:39.079Z,89.36
2018-01-26T04:25:12.336Z,89.34
2018-01-26T04:27:40.641Z,89.18
2018-01-26T04:30:10.815Z,89.07
2018-01-26T04:32:39.099Z,88.64
2018-01-26T04:35:10.600Z,88.00
2018-01-26T04:37:38.880Z,87.42
2018-01-26T04:40:10.585Z,86.99
2018-01-26T04:42:38.875Z,87.06
2018-01-26T04:45:12.089Z,86.95
2018-01-26T04:47:40.505Z,87.42
2018-01-26T04:50:11.818Z,87.22
2018-01-26T04:52:40.093Z,87.67
2018-01-26T04:55:11.650Z,88.00
2018-01-26T04:57:40.923Z,88.15
2018-01-26T05:00:10.744Z,88.28
2018-01-26T05:02:39.004Z,88.46
2018-01-26T05:05:14.028Z,88.51
2018-01-26T05:07:42.316Z,88.81
2018-01-26T05:10:10.848Z,88.87
2018-01-26T05:12:39.117Z,88.62
2018-01-26T05:15:11.152Z,88.60
2018-01-26T05:17:39.437Z,88.45
2018-01-26T05:20:11.604Z,88.33
2018-01-26T05:22:39.889Z,88.65
2018-01-26T05:25:11.336Z,89.01
2018-01-26T05:27:39.635Z,89.22
2018-01-26T05:30:10.776Z,89.15
2018-01-26T05:32:39.064Z,88.96
2018-01-26T05:35:14.075Z,88.71
2018-01-26T05:37:42.361Z,89.01
2018-01-26T05:40:10.639Z,89.08
2018-01-26T05:42:38.955Z,88.88
2018-01-26T05:45:10.941Z,89.02
2018-01-26T05:47:39.628Z,89.07
2018-01-26T05:50:10.963Z,88.99
2018-01-26T05:52:39.380Z,88.71
2018-01-26T05:55:10.806Z,88.44
2018-01-26T05:57:39.405Z,88.61
2018-01-26T06:00:11.476Z,88.82
2018-01-26T06:02:41.111Z,88.97
2018-01-26T06:05:10.939Z,88.92
2018-01-26T06:07:39.226Z,88.99
2018-01-26T06:10:13.648Z,89.04
2018-01-26T06:12:41.952Z,88.95
2018-01-26T06:15:11.092Z,88.83
2018-01-26T06:17:39.384Z,88.85
2018-01-26T06:20:10.924Z,88.90
2018-01-26T06:22:39.218Z,88.82
2018-01-26T06:25:10.610Z,89.09
2018-01-26T06:27:38.906Z,89.10
2018-01-26T06:30:10.460Z,89.04
2018-01-26T06:32:38.940Z,89.16
2018-01-26T06:35:14.224Z,89.29
2018-01-26T06:37:42.518Z,89.33
2018-01-26T06:40:10.802Z,88.79
2018-01-26T06:42:39.056Z,88.93
2018-01-26T06:45:10.901Z,89.20
2018-01-26T06:47:39.176Z,89.09
2018-01-26T06:50:10.766Z,88.93
2018-01-26T06:52:39.108Z,89.02
2018-01-26T06:55:14.139Z,89.02
2018-01-26T06:57:43.514Z,89.20
2018-01-26T07:00:11.884Z,89.38
2018-01-26T07:02:40.916Z,89.15
2018-01-26T07:05:12.669Z,88.54
2018-01-26T07:07:41.188Z,87.94
2018-01-26T07:10:12.404Z,88.15
2018-01-26T07:12:40.762Z,88.84
2018-01-26T07:15:10.588Z,88.77
2018-01-26T07:17:39.176Z,88.70
2018-01-26T07:20:10.713Z,88.37
2018-01-26T07:22:39.012Z,88.44
2018-01-26T07:25:14.141Z,88.53
2018-01-26T07:27:43.231Z,88.90
2018-01-26T07:30:11.508Z,88.92
2018-01-26T07:32:39.985Z,88.58
2018-01-26T07:35:12.217Z,88.68
2018-01-26T07:37:40.506Z,88.66
2018-01-26T07:40:12.032Z,88.66
2018-01-26T07:42:40.331Z,88.39
2018-01-26T07:45:12.425Z,88.36
2018-01-26T07:47:40.734Z,88.35
2018-01-26T07:50:12.010Z,87.69
2018-01-26T07:52:40.761Z,87.08
2018-01-26T07:55:11.067Z,87.46
2018-01-26T07:57:39.428Z,87.78
2018-01-26T08:00:11.355Z,87.90
2018-01-26T08:02:39.625Z,87.56
2018-01-26T08:05:11.572Z,87.94
2018-01-26T08:07:39.895Z,87.73
2018-01-26T08:10:10.665Z,88.21
2018-01-26T08:12:38.928Z,88.51
2018-01-26T08:15:14.051Z,88.77
2018-01-26T08:17:42.340Z,88.51
2018-01-26T08:20:10.645Z,88.30
2018-01-26T08:22:39.300Z,88.19
2018-01-26T08:25:10.796Z,87.95
2018-01-26T08:27:39.792Z,88.02
2018-01-26T08:30:11.808Z,88.08
2018-01-26T08:32:40.646Z,87.82
2018-01-26T08:35:12.210Z,87.66
2018-01-26T08:37:40.586Z,87.47
2018-01-26T08:40:10.660Z,86.80
2018-01-26T08:42:38.948Z,86.82
2018-01-26T08:45:14.252Z,87.01
2018-01-26T08:47:42.557Z,86.83
2018-01-26T08:50:10.833Z,86.75
2018-01-26T08:52:39.131Z,87.34
2018-01-26T08:55:17.149Z,87.04
2018-01-26T08:57:45.453Z,87.37
2018-01-26T09:00:13.719Z,86.79
2018-01-26T09:02:42.012Z,85.23
2018-01-26T09:05:10.698Z,85.11
2018-01-26T09:07:39.387Z,85.04
2018-01-26T09:10:10.775Z,84.59
2018-01-26T09:12:39.103Z,84.97
2018-01-26T09:15:14.176Z,83.68
2018-01-26T09:17:42.488Z,82.84
2018-01-26T09:20:10.773Z,84.18
2018-01-26T09:22:39.252Z,83.26
2018-01-26T09:25:11.921Z,82.54
2018-01-26T09:27:40.199Z,81.16
2018-01-26T09:30:12.328Z,80.69
2018-01-26T09:32:40.853Z,81.17
2018-01-26T09:35:10.745Z,81.23
2018-01-26T09:37:39.045Z,80.23
2018-01-26T09:40:10.936Z,80.70
2018-01-26T09:42:39.901Z,82.05
2018-01-26T09:45:11.811Z,81.99
2018-01-26T09:47:40.521Z,81.08
2018-01-26T09:50:12.305Z,82.57
2018-01-26T09:52:40.583Z,81.07
2018-01-26T09:55:10.708Z,81.10
2018-01-26T09:57:38.977Z,80.58
2018-01-26T10:00:10.509Z,79.75
2018-01-26T10:02:39.093Z,78.82
2018-01-26T10:05:14.098Z,77.78
2018-01-26T10:07:42.980Z,78.12
2018-01-26T10:10:24.027Z,78.37
2018-01-26T10:12:52.476Z,77.13
2018-01-26T10:15:21.064Z,76.12
2018-01-26T10:17:49.337Z,74.92
2018-01-26T10:20:17.631Z,74.22
2018-01-26T10:22:45.908Z,73.41
2018-01-26T10:25:14.467Z,70.67
2018-01-26T10:27:42.733Z,70.15
2018-01-26T10:30:11.012Z,68.93
2018-01-26T10:32:39.537Z,68.45
2018-01-26T10:35:10.989Z,68.99
2018-01-26T10:37:39.279Z,69.98
2018-01-26T10:40:13.193Z,66.46
2018-01-26T10:42:41.486Z,66.67
2018-01-26T10:45:12.999Z,66.68
2018-01-26T10:47:41.307Z,68.42
2018-01-26T10:50:11.444Z,64.76
2018-01-26T10:52:39.917Z,63.03
2018-01-26T10:55:10.684Z,62.33
2018-01-26T10:57:39.212Z,63.95
2018-01-26T11:00:10.770Z,65.26
2018-01-26T11:02:39.071Z,66.11
2018-01-26T11:05:14.240Z,65.76
2018-01-26T11:07:42.541Z,69.39
2018-01-26T11:10:10.975Z,70.00
2018-01-26T11:12:39.247Z,70.81
2018-01-26T11:15:10.774Z,71.38
2018-01-26T11:17:39.050Z,70.96
2018-01-26T11:20:10.500Z,72.60
2018-01-26T11:22:39.081Z,71.27
2018-01-26T11:25:14.240Z,72.52
2018-01-26T11:27:42.524Z,71.86
2018-01-26T11:30:10.793Z,71.70
2018-01-26T11:32:39.833Z,72.96
2018-01-26T11:35:11.953Z,74.26
2018-01-26T11:37:40.328Z,75.60
2018-01-26T11:40:12.742Z,75.65
2018-01-26T11:42:41.712Z,76.77
2018-01-26T11:45:11.096Z,76.12
2018-01-26T11:47:39.534Z,74.00
2018-01-26T11:50:11.752Z,73.41
2018-01-26T11:52:40.044Z,75.58
2018-01-26T11:55:12.755Z,74.63
2018-01-26T11:57:41.253Z,74.55
2018-01-26T12:00:11.532Z,73.88
2018-01-26T12:02:39.837Z,72.88
2018-01-26T12:05:11.829Z,71.48
2018-01-26T12:07:40.123Z,72.38
2018-01-26T12:10:11.304Z,72.77
2018-01-26T12:12:39.603Z,70.62
2018-01-26T12:15:10.948Z,73.14
2018-01-26T12:17:39.478Z,73.37
2018-01-26T12:20:11.341Z,71.05
2018-01-26T12:22:39.654Z,72.59
2018-01-26T12:25:11.751Z,70.55
2018-01-26T12:27:40.044Z,71.19
2018-01-26T12:30:10.692Z,71.12
2018-01-26T12:32:38.972Z,72.67
2018-01-26T12:35:10.499Z,73.03
2018-01-26T12:37:38.778Z,71.21
2018-01-26T12:40:13.644Z,72.32
2018-01-26T12:42:41.937Z,72.99
2018-01-26T12:45:11.893Z,73.17
2018-01-26T12:47:40.180Z,72.21
2018-01-26T12:50:12.461Z,72.89
2018-01-26T12:52:41.108Z,73.99
2018-01-26T12:55:11.004Z,73.81
2018-01-26T12:57:39.276Z,74.06
2018-01-26T13:02:47.876Z,73.25
2018-01-26T13:05:16.760Z,71.43
2018-01-26T13:07:45.061Z,72.05
2018-01-26T13:10:13.329Z,71.14
2018-01-26T13:12:41.604Z,70.32
2018-01-26T13:15:11.048Z,70.62
2018-01-26T13:17:39.454Z,70.58
2018-01-26T13:20:10.919Z,71.08
2018-01-26T13:22:39.162Z,71.33
2018-01-26T13:25:10.908Z,69.59
2018-01-26T13:27:39.208Z,66.47
2018-01-26T13:30:10.507Z,68.18
2018-01-26T13:32:38.798Z,68.45
2018-01-26T13:35:10.076Z,65.88
2018-01-26T13:37:38.399Z,67.25
2018-01-26T13:40:13.048Z,67.72
2018-01-26T13:42:41.352Z,65.94
2018-01-26T13:45:11.302Z,65.86
2018-01-26T13:47:39.601Z,65.58
2018-01-26T13:50:11.492Z,67.87
2018-01-26T13:52:39.780Z,66.74
2018-01-26T13:55:11.048Z,66.11
2018-01-26T13:57:39.844Z,66.30
2018-01-26T14:00:11.696Z,67.22
2018-01-26T14:02:40.025Z,68.16
2018-01-26T14:05:11.976Z,67.84
2018-01-26T14:07:40.592Z,69.24
2018-01-26T14:10:12.448Z,68.27
2018-01-26T14:12:41.136Z,67.73
2018-01-26T14:15:10.749Z,67.87
2018-01-26T14:17:39.057Z,69.86
2018-01-26T14:20:11.138Z,68.58
2018-01-26T14:22:39.431Z,69.06
2018-01-26T14:25:10.774Z,69.57
2018-01-26T14:27:39.096Z,69.26
2018-01-26T14:30:14.381Z,70.83
2018-01-26T14:32:42.671Z,72.10
2018-01-26T14:35:10.969Z,72.21
2018-01-26T14:37:39.309Z,71.66
2018-01-26T14:40:10.723Z,72.91
2018-01-26T14:42:39.281Z,73.10
2018-01-26T14:45:10.912Z,73.22
2018-01-26T14:47:39.302Z,73.61
2018-01-26T14:50:10.717Z,73.21
2018-01-26T14:52:39.003Z,73.25
2018-01-26T14:55:10.469Z,73.85
2018-01-26T14:57:39.021Z,74.32
2018-01-26T15:00:12.296Z,74.34
2018-01-26T15:02:40.886Z,74.02
2018-01-26T15:05:11.119Z,72.58
2018-01-26T15:07:39.834Z,73.21
2018-01-26T15:10:10.819Z,74.43
2018-01-26T15:12:39.238Z,74.33
2018-01-26T15:15:10.732Z,73.91
2018-01-26T15:17:39.039Z,73.19
2018-01-26T15:20:12.425Z,73.21
2018-01-26T15:22:42.127Z,73.46
2018-01-26T15:25:11.348Z,73.36
2018-01-26T15:27:39.660Z,73.44
2018-01-26T15:30:11.685Z,74.26
2018-01-26T15:32:39.968Z,74.40
2018-01-26T15:35:11.142Z,74.10
2018-01-26T15:37:39.428Z,74.40
2018-01-26T15:40:10.862Z,74.38
2018-01-26T15:42:39.137Z,75.68
2018-01-26T15:45:14.342Z,75.67
2018-01-26T15:47:42.669Z,76.12
2018-01-26T15:50:10.957Z,75.70
2018-01-26T15:52:39.230Z,75.78
2018-01-26T15:55:10.542Z,76.11
2018-01-26T15:57:38.804Z,76.15
2018-01-26T16:00:10.149Z,77.39
2018-01-26T16:02:38.430Z,78.07
2018-01-26T16:05:13.360Z,77.54
2018-01-26T16:07:41.638Z,78.02
2018-01-26T16:10:10.832Z,78.90
2018-01-26T16:12:39.106Z,79.00
2018-01-26T16:15:10.598Z,78.37
2018-01-26T16:17:38.889Z,78.94
2018-01-26T16:20:10.597Z,77.81
2018-01-26T16:22:39.138Z,77.33
2018-01-26T16:25:14.189Z,78.11
2018-01-26T16:27:42.961Z,79.00
2018-01-26T16:30:11.230Z,79.96
2018-01-26T16:32:39.749Z,80.22
2018-01-26T16:35:11.625Z,80.60
2018-01-26T16:37:40.516Z,80.85
2018-01-26T16:40:10.689Z,81.29
2018-01-26T16:42:39.053Z,81.32
2018-01-26T16:45:10.349Z,81.80
2018-01-26T16:47:38.664Z,82.04
2018-01-26T16:50:10.650Z,82.14
2018-01-26T16:52:39.068Z,82.14
2018-01-26T16:55:09.742Z,82.27
2018-01-26T16:57:38.052Z,82.80
2018-01-26T17:00:09.975Z,82.82
2018-01-26T17:02:38.261Z,83.16
2018-01-26T17:05:10.439Z,83.31
2018-01-26T17:07:38.692Z,83.22
2018-01-26T17:10:09.875Z,84.75
2018-01-26T17:12:38.116Z,84.83
2018-01-26T17:15:09.569Z,83.70
2018-01-26T17:17:37.850Z,83.80
2018-01-26T17:20:09.156Z,83.93
2018-01-26T17:22:37.468Z,83.70
2018-01-26T17:25:10.804Z,84.24
2018-01-26T17:27:39.076Z,84.01
2018-01-26T17:30:11.241Z,83.70
2018-01-26T17:32:39.558Z,83.10
2018-01-26T17:35:10.794Z,83.87
2018-01-26T17:37:39.802Z,84.49
2018-01-26T17:40:10.271Z,84.77
2018-01-26T17:42:38.574Z,85.01
2018-01-26T17:45:09.952Z,85.01
2018-01-26T17:47:39.276Z,85.11
2018-01-26T17:50:10.620Z,86.35
2018-01-26T17:52:39.553Z,85.36
2018-01-26T17:55:11.232Z,83.99
2018-01-26T17:57:39.554Z,83.31
2018-01-26T18:00:11.519Z,82.73
2018-01-26T18:02:40.021Z,82.71
2018-01-26T18:05:10.442Z,82.57
2018-01-26T18:07:39.037Z,82.13
2018-01-26T18:10:10.862Z,82.21
2018-01-26T18:12:39.308Z,82.27
2018-01-26T18:15:10.833Z,81.77
2018-01-26T18:17:39.806Z,81.58
2018-01-26T18:20:11.671Z,81.86
2018-01-26T18:22:39.959Z,82.04
2018-01-26T18:25:11.451Z,82.62
2018-01-26T18:27:39.771Z,83.26
2018-01-26T18:30:11.719Z,83.82
2018-01-26T18:32:40.004Z,83.65
2018-01-26T18:35:11.216Z,83.22
2018-01-26T18:37:39.575Z,83.34
2018-01-26T18:40:11.486Z,83.57
2018-01-26T18:42:39.789Z,83.77
2018-01-26T18:45:10.405Z,84.08
2018-01-26T18:47:38.716Z,84.23
2018-01-26T18:50:10.839Z,84.43
2018-01-26T18:52:39.297Z,84.83
2018-01-26T18:55:11.317Z,85.40
2018-01-26T18:57:39.669Z,84.70
2018-01-26T19:00:11.566Z,84.29
2018-01-26T19:02:39.876Z,83.70
2018-01-26T19:05:10.960Z,83.25
2018-01-26T19:07:39.248Z,82.68
2018-01-26T19:10:10.610Z,83.29
2018-01-26T19:12:38.888Z,83.42
2018-01-26T19:15:09.870Z,83.66
2018-01-26T19:17:38.158Z,83.51
2018-01-26T19:20:12.714Z,83.65
2018-01-26T19:22:40.988Z,83.77
2018-01-26T19:25:10.189Z,83.88
2018-01-26T19:27:38.501Z,84.37
2018-01-26T19:30:10.478Z,84.55
2018-01-26T19:32:38.865Z,84.07
2018-01-26T19:35:13.617Z,84.85
2018-01-26T19:37:42.058Z,84.63
2018-01-26T19:40:10.866Z,84.70
2018-01-26T19:42:39.781Z,85.12
2018-01-26T19:45:10.308Z,85.05
2018-01-26T19:47:39.090Z,84.68
2018-01-26T19:50:10.433Z,85.10
2018-01-26T19:52:39.335Z,85.37
2018-01-26T19:55:11.185Z,85.26
2018-01-26T19:57:40.179Z,85.26
2018-01-26T20:00:11.821Z,85.80
2018-01-26T20:02:40.834Z,85.60
2018-01-26T20:05:28.811Z,84.87
2018-01-26T20:08:01.316Z,84.34
2018-01-26T20:10:30.241Z,83.98
2018-01-26T20:13:04.747Z,84.26
2018-01-26T20:15:33.753Z,84.83
2018-01-26T20:18:02.952Z,85.07
2018-01-26T20:20:31.920Z,84.65
2018-01-26T20:23:00.760Z,84.86
2018-01-26T20:25:29.929Z,84.88
2018-01-26T20:27:58.818Z,85.47
2018-01-26T20:30:27.719Z,86.20
2018-01-26T20:32:57.269Z,85.52
2018-01-26T20:35:26.202Z,85.45
2018-01-26T20:37:55.100Z,84.98
2018-01-26T20:40:23.994Z,84.72
2018-01-26T20:42:52.677Z,85.63
2018-01-26T20:45:20.964Z,85.43
2018-01-26T20:47:49.275Z,85.45
2018-01-26T20:50:17.589Z,85.64
2018-01-26T20:52:46.118Z,86.27
2018-01-26T20:55:14.409Z,86.31
2018-01-26T20:57:42.706Z,86.55
2018-01-26T21:00:11.502Z,86.93
2018-01-26T21:02:39.777Z,86.36
2018-01-26T21:05:09.773Z,86.32
2018-01-26T21:07:38.736Z,85.77
2018-01-26T21:10:11.298Z,86.04
2018-01-26T21:12:39.589Z,86.34
2018-01-26T21:15:11.534Z,86.18
2018-01-26T21:17:39.850Z,86.15
2018-01-26T21:20:10.889Z,85.83
2018-01-26T21:22:39.818Z,86.03
2018-01-26T21:25:10.009Z,85.24
2018-01-26T21:27:38.300Z,85.63
2018-01-26T21:30:13.406Z,85.19
2018-01-26T21:32:42.256Z,85.41
2018-01-26T21:35:10.549Z,86.04
2018-01-26T21:37:38.849Z,86.37
2018-01-26T21:40:10.911Z,86.84
2018-01-26T21:42:39.190Z,86.47
2018-01-26T21:45:10.733Z,86.23
2018-01-26T21:47:39.035Z,85.76
2018-01-26T21:50:10.198Z,85.73
2018-01-26T21:52:38.501Z,85.81
2018-01-26T21:55:10.654Z,85.86
2018-01-26T21:57:38.953Z,86.44
2018-01-26T22:00:10.505Z,86.37
2018-01-26T22:02:38.795Z,86.03
2018-01-26T22:05:15.983Z,86.51
2018-01-26T22:07:44.295Z,86.90
2018-01-26T22:10:12.597Z,87.06
2018-01-26T22:12:40.922Z,86.55
2018-01-26T22:15:10.060Z,86.43
2018-01-26T22:17:38.368Z,86.09
2018-01-26T22:20:09.833Z,85.84
2018-01-26T22:22:38.144Z,86.30
2018-01-26T22:25:09.605Z,86.78
2018-01-26T22:27:37.977Z,86.66
2018-01-26T22:30:13.409Z,86.56
2018-01-26T22:32:41.794Z,86.95
2018-01-26T22:35:10.085Z,87.44
2018-01-26T22:37:38.414Z,87.36
2018-01-26T22:40:09.853Z,87.44
2018-01-26T22:42:38.374Z,87.32
2018-01-26T22:45:10.070Z,86.87
2018-01-26T22:47:38.786Z,86.63
2018-01-26T22:50:10.340Z,86.78
2018-01-26T22:52:38.652Z,86.66
2018-01-26T22:55:10.849Z,87.03
2018-01-26T22:57:39.134Z,87.07
2018-01-26T23:00:10.584Z,87.33
2018-01-26T23:02:38.912Z,86.57
2018-01-26T23:05:11.561Z,85.71
2018-01-26T23:07:40.111Z,85.89
2018-01-26T23:10:09.930Z,86.28
2018-01-26T23:12:38.236Z,86.48
2018-01-26T23:15:09.813Z,86.23
2018-01-26T23:17:38.137Z,86.33
2018-01-26T23:20:09.832Z,86.01
2018-01-26T23:22:38.477Z,86.38
2018-01-26T23:25:10.214Z,85.90
2018-01-26T23:27:39.033Z,85.70
2018-01-26T23:30:10.687Z,85.76
2018-01-26T23:32:39.741Z,85.49
2018-01-26T23:35:11.054Z,85.94
2018-01-26T23:37:39.355Z,86.15
2018-01-26T23:40:10.556Z,85.94
2018-01-26T23:42:38.870Z,86.01
2018-01-26T23:45:10.985Z,86.44
2018-01-26T23:47:40.205Z,86.79
2018-01-26T23:50:10.297Z,87.19
2018-01-26T23:52:38.860Z,86.80
2018-01-26T23:55:10.924Z,86.55
2018-01-26T23:57:39.241Z,86.88
